sensor_id;sensor_type;location;lat;lon;timestamp;pressure;altitude;pressure_sealevel;temperature;humidity
14269;BME280;7218;51.480;7.006;2024-02-26T00:01:44;75920.28;;;-143.00;66.59
14269;BME280;7218;51.480;7.006;2024-02-26T00:04:12;75902.31;;;-143.00;66.28
14269;BME280;7218;51.480;7.006;2024-02-26T00:06:38;75922.28;;;-143.00;66.40
14269;BME280;7218;51.480;7.006;2024-02-26T00:09:06;75922.28;;;-143.00;65.97
14269;BME280;7218;51.480;7.006;2024-02-26T00:11:32;75916.28;;;-143.00;65.46
14269;BME280;7218;51.480;7.006;2024-02-26T00:13:59;75912.28;;;-143.00;65.47
14269;BME280;7218;51.480;7.006;2024-02-26T00:16:25;75912.28;;;-143.00;64.61
14269;BME280;7218;51.480;7.006;2024-02-26T00:18:52;75914.28;;;-143.00;64.89
14269;BME280;7218;51.480;7.006;2024-02-26T00:21:20;75894.31;;;-143.00;64.71
14269;BME280;7218;51.480;7.006;2024-02-26T00:23:46;75914.28;;;-143.00;65.74
14269;BME280;7218;51.480;7.006;2024-02-26T00:26:13;75922.28;;;-143.00;66.38
14269;BME280;7218;51.480;7.006;2024-02-26T00:28:40;75918.28;;;-143.00;67.46
14269;BME280;7218;51.480;7.006;2024-02-26T00:31:06;75922.28;;;-143.00;67.01
14269;BME280;7218;51.480;7.006;2024-02-26T00:33:33;75918.28;;;-143.00;67.52
14269;BME280;7218;51.480;7.006;2024-02-26T00:35:59;75918.28;;;-143.00;67.78
14269;BME280;7218;51.480;7.006;2024-02-26T00:38:27;75916.28;;;-143.00;68.09
14269;BME280;7218;51.480;7.006;2024-02-26T00:40:54;75918.28;;;-143.00;68.21
14269;BME280;7218;51.480;7.006;2024-02-26T00:43:20;75934.25;;;-143.00;67.91
14269;BME280;7218;51.480;7.006;2024-02-26T00:45:47;75930.25;;;-143.00;69.09
14269;BME280;7218;51.480;7.006;2024-02-26T00:48:13;75928.25;;;-143.00;68.42
14269;BME280;7218;51.480;7.006;2024-02-26T00:50:40;75930.25;;;-143.00;68.01
14269;BME280;7218;51.480;7.006;2024-02-26T00:53:06;75930.25;;;-143.00;68.18
14269;BME280;7218;51.480;7.006;2024-02-26T00:55:35;75910.28;;;-143.00;67.48
14269;BME280;7218;51.480;7.006;2024-02-26T00:58:01;75926.25;;;-143.00;67.91
14269;BME280;7218;51.480;7.006;2024-02-26T01:00:28;75926.25;;;-143.00;68.08
14269;BME280;7218;51.480;7.006;2024-02-26T01:02:54;75944.22;;;-143.00;67.68
14269;BME280;7218;51.480;7.006;2024-02-26T01:05:21;75942.22;;;-143.00;68.60
14269;BME280;7218;51.480;7.006;2024-02-26T01:07:48;75938.25;;;-143.00;68.76
14269;BME280;7218;51.480;7.006;2024-02-26T01:10:14;75942.22;;;-143.00;67.66
14269;BME280;7218;51.480;7.006;2024-02-26T01:12:42;75938.25;;;-143.00;67.18
14269;BME280;7218;51.480;7.006;2024-02-26T01:15:09;75968.19;;;-143.00;67.53
14269;BME280;7218;51.480;7.006;2024-02-26T01:17:36;75956.22;;;-143.00;68.09
14269;BME280;7218;51.480;7.006;2024-02-26T01:20:02;75956.22;;;-143.00;67.32
14269;BME280;7218;51.480;7.006;2024-02-26T01:22:29;75944.22;;;-143.00;67.19
14269;BME280;7218;51.480;7.006;2024-02-26T01:24:56;75970.19;;;-143.00;67.45
14269;BME280;7218;51.480;7.006;2024-02-26T01:27:23;75980.16;;;-143.00;67.00
14269;BME280;7218;51.480;7.006;2024-02-26T01:29:53;75950.22;;;-143.00;66.98
14269;BME280;7218;51.480;7.006;2024-02-26T01:32:19;75966.19;;;-143.00;67.23
14269;BME280;7218;51.480;7.006;2024-02-26T01:34:46;75970.19;;;-143.00;66.42
14269;BME280;7218;51.480;7.006;2024-02-26T01:37:12;75974.16;;;-143.00;67.14
14269;BME280;7218;51.480;7.006;2024-02-26T01:39:39;75970.19;;;-143.00;66.94
14269;BME280;7218;51.480;7.006;2024-02-26T01:42:06;75964.19;;;-143.00;67.03
14269;BME280;7218;51.480;7.006;2024-02-26T01:44:33;75962.19;;;-143.00;67.04
14269;BME280;7218;51.480;7.006;2024-02-26T01:47:01;75958.19;;;-143.00;67.14
14269;BME280;7218;51.480;7.006;2024-02-26T01:49:28;75958.19;;;-143.00;67.25
14269;BME280;7218;51.480;7.006;2024-02-26T01:51:55;75948.22;;;-143.00;66.69
14269;BME280;7218;51.480;7.006;2024-02-26T01:54:23;75972.19;;;-143.00;67.39
14269;BME280;7218;51.480;7.006;2024-02-26T01:56:49;75970.19;;;-143.00;67.31
14269;BME280;7218;51.480;7.006;2024-02-26T01:59:16;75968.19;;;-143.00;67.61
14269;BME280;7218;51.480;7.006;2024-02-26T02:01:44;75966.19;;;-143.00;67.74
14269;BME280;7218;51.480;7.006;2024-02-26T02:04:15;75950.22;;;-143.00;67.79
14269;BME280;7218;51.480;7.006;2024-02-26T02:06:43;75962.19;;;-143.00;67.49
14269;BME280;7218;51.480;7.006;2024-02-26T02:09:11;75970.19;;;-143.00;67.52
14269;BME280;7218;51.480;7.006;2024-02-26T02:11:37;75966.19;;;-143.00;66.64
14269;BME280;7218;51.480;7.006;2024-02-26T02:14:04;75962.19;;;-143.00;67.36
14269;BME280;7218;51.480;7.006;2024-02-26T02:16:31;75968.19;;;-143.00;67.54
14269;BME280;7218;51.480;7.006;2024-02-26T02:18:58;75958.19;;;-143.00;67.49
14269;BME280;7218;51.480;7.006;2024-02-26T02:21:25;75948.22;;;-143.00;67.58
14269;BME280;7218;51.480;7.006;2024-02-26T02:23:52;75954.22;;;-143.00;67.31
14269;BME280;7218;51.480;7.006;2024-02-26T02:26:19;75948.22;;;-143.00;67.42
14269;BME280;7218;51.480;7.006;2024-02-26T02:28:46;75964.19;;;-143.00;67.50
14269;BME280;7218;51.480;7.006;2024-02-26T02:31:13;75966.19;;;-143.00;67.30
14269;BME280;7218;51.480;7.006;2024-02-26T02:33:40;75966.19;;;-143.00;66.12
14269;BME280;7218;51.480;7.006;2024-02-26T02:36:07;75966.19;;;-143.00;67.26
14269;BME280;7218;51.480;7.006;2024-02-26T02:38:36;75950.22;;;-143.00;67.29
14269;BME280;7218;51.480;7.006;2024-02-26T02:41:04;75974.16;;;-143.00;67.18
14269;BME280;7218;51.480;7.006;2024-02-26T02:43:30;75982.16;;;-143.00;67.25
14269;BME280;7218;51.480;7.006;2024-02-26T02:45:57;75982.16;;;-143.00;67.13
14269;BME280;7218;51.480;7.006;2024-02-26T02:48:23;75968.19;;;-143.00;65.57
14269;BME280;7218;51.480;7.006;2024-02-26T02:50:49;75978.16;;;-143.00;65.95
14269;BME280;7218;51.480;7.006;2024-02-26T02:53:16;75974.16;;;-143.00;65.66
14269;BME280;7218;51.480;7.006;2024-02-26T02:55:45;75962.19;;;-143.00;65.84
14269;BME280;7218;51.480;7.006;2024-02-26T02:58:11;75980.16;;;-143.00;66.50
14269;BME280;7218;51.480;7.006;2024-02-26T03:00:37;75986.16;;;-143.00;66.34
14269;BME280;7218;51.480;7.006;2024-02-26T03:03:04;75968.19;;;-143.00;65.42
14269;BME280;7218;51.480;7.006;2024-02-26T03:05:31;75970.19;;;-143.00;65.15
14269;BME280;7218;51.480;7.006;2024-02-26T03:07:58;75966.19;;;-143.00;65.78
14269;BME280;7218;51.480;7.006;2024-02-26T03:10:24;75950.22;;;-143.00;65.63
14269;BME280;7218;51.480;7.006;2024-02-26T03:12:53;75928.25;;;-143.00;66.12
14269;BME280;7218;51.480;7.006;2024-02-26T03:15:19;75956.22;;;-143.00;66.72
14269;BME280;7218;51.480;7.006;2024-02-26T03:17:46;75958.19;;;-143.00;66.23
14269;BME280;7218;51.480;7.006;2024-02-26T03:20:12;75960.19;;;-143.00;65.80
14269;BME280;7218;51.480;7.006;2024-02-26T03:22:39;75958.19;;;-143.00;65.47
14269;BME280;7218;51.480;7.006;2024-02-26T03:25:07;75966.19;;;-143.00;65.70
14269;BME280;7218;51.480;7.006;2024-02-26T03:27:33;75980.16;;;-143.00;65.49
14269;BME280;7218;51.480;7.006;2024-02-26T03:30:01;75948.22;;;-143.00;66.37
14269;BME280;7218;51.480;7.006;2024-02-26T03:32:28;75968.19;;;-143.00;66.10
14269;BME280;7218;51.480;7.006;2024-02-26T03:34:55;75974.16;;;-143.00;66.12
14269;BME280;7218;51.480;7.006;2024-02-26T03:37:21;75992.13;;;-143.00;67.71
14269;BME280;7218;51.480;7.006;2024-02-26T03:39:48;75988.16;;;-143.00;68.83
14269;BME280;7218;51.480;7.006;2024-02-26T03:42:14;75994.13;;;-143.00;69.52
14269;BME280;7218;51.480;7.006;2024-02-26T03:44:41;75998.13;;;-143.00;71.65
14269;BME280;7218;51.480;7.006;2024-02-26T03:47:09;75994.13;;;-143.00;72.13
14269;BME280;7218;51.480;7.006;2024-02-26T03:49:35;75998.13;;;-143.00;72.83
14269;BME280;7218;51.480;7.006;2024-02-26T03:52:02;76006.13;;;-143.00;72.30
14269;BME280;7218;51.480;7.006;2024-02-26T03:54:29;76024.09;;;-143.00;73.72
14269;BME280;7218;51.480;7.006;2024-02-26T03:56:55;76042.03;;;-143.00;74.05
14269;BME280;7218;51.480;7.006;2024-02-26T03:59:22;76042.03;;;-143.00;74.87
14269;BME280;7218;51.480;7.006;2024-02-26T04:01:49;76062.00;;;-143.00;74.69
14269;BME280;7218;51.480;7.006;2024-02-26T04:04:17;76030.06;;;-143.00;74.65
14269;BME280;7218;51.480;7.006;2024-02-26T04:06:44;76016.09;;;-143.00;74.49
14269;BME280;7218;51.480;7.006;2024-02-26T04:09:10;76020.09;;;-143.00;75.14
14269;BME280;7218;51.480;7.006;2024-02-26T04:11:37;76014.09;;;-143.00;74.77
14269;BME280;7218;51.480;7.006;2024-02-26T04:14:03;76032.06;;;-143.00;74.34
14269;BME280;7218;51.480;7.006;2024-02-26T04:16:31;76036.06;;;-143.00;74.87
14269;BME280;7218;51.480;7.006;2024-02-26T04:18:57;76036.06;;;-143.00;75.37
14269;BME280;7218;51.480;7.006;2024-02-26T04:21:25;76022.09;;;-143.00;75.28
14269;BME280;7218;51.480;7.006;2024-02-26T04:23:51;76040.06;;;-143.00;75.13
14269;BME280;7218;51.480;7.006;2024-02-26T04:26:20;76046.03;;;-143.00;75.57
14269;BME280;7218;51.480;7.006;2024-02-26T04:28:46;76056.03;;;-143.00;75.40
14269;BME280;7218;51.480;7.006;2024-02-26T04:31:13;76046.03;;;-143.00;75.49
14269;BME280;7218;51.480;7.006;2024-02-26T04:33:39;76058.00;;;-143.00;75.32
14269;BME280;7218;51.480;7.006;2024-02-26T04:36:12;76038.06;;;-143.00;75.56
14269;BME280;7218;51.480;7.006;2024-02-26T04:38:40;76026.06;;;-143.00;76.12
14269;BME280;7218;51.480;7.006;2024-02-26T04:41:07;76034.06;;;-143.00;75.99
14269;BME280;7218;51.480;7.006;2024-02-26T04:43:33;76038.06;;;-143.00;75.52
14269;BME280;7218;51.480;7.006;2024-02-26T04:46:00;76040.06;;;-143.00;75.95
14269;BME280;7218;51.480;7.006;2024-02-26T04:48:27;76032.06;;;-143.00;75.58
14269;BME280;7218;51.480;7.006;2024-02-26T04:50:54;76095.94;;;-143.00;76.42
14269;BME280;7218;51.480;7.006;2024-02-26T04:53:20;76077.97;;;-143.00;77.24
14269;BME280;7218;51.480;7.006;2024-02-26T04:55:48;76046.03;;;-143.00;76.52
14269;BME280;7218;51.480;7.006;2024-02-26T04:58:14;76083.97;;;-143.00;76.55
14269;BME280;7218;51.480;7.006;2024-02-26T05:00:41;76079.97;;;-143.00;77.76
14269;BME280;7218;51.480;7.006;2024-02-26T05:03:07;76083.97;;;-143.00;77.91
14269;BME280;7218;51.480;7.006;2024-02-26T05:05:38;76097.94;;;-143.00;77.80
14269;BME280;7218;51.480;7.006;2024-02-26T05:08:05;76087.97;;;-143.00;77.94
14269;BME280;7218;51.480;7.006;2024-02-26T05:10:32;76081.97;;;-143.00;78.29
14269;BME280;7218;51.480;7.006;2024-02-26T05:13:00;76068.00;;;-143.00;78.18
14269;BME280;7218;51.480;7.006;2024-02-26T05:15:26;76085.97;;;-143.00;78.52
14269;BME280;7218;51.480;7.006;2024-02-26T05:17:53;76093.94;;;-143.00;78.93
14269;BME280;7218;51.480;7.006;2024-02-26T05:20:19;76083.97;;;-143.00;78.47
14269;BME280;7218;51.480;7.006;2024-02-26T05:22:46;76101.94;;;-143.00;77.91
14269;BME280;7218;51.480;7.006;2024-02-26T05:25:14;76091.97;;;-143.00;78.00
14269;BME280;7218;51.480;7.006;2024-02-26T05:27:41;76097.94;;;-143.00;79.12
14269;BME280;7218;51.480;7.006;2024-02-26T05:30:10;76111.91;;;-143.00;79.26
14269;BME280;7218;51.480;7.006;2024-02-26T05:32:37;76099.94;;;-143.00;78.57
14269;BME280;7218;51.480;7.006;2024-02-26T05:35:04;76109.91;;;-143.00;78.70
14269;BME280;7218;51.480;7.006;2024-02-26T05:37:31;76109.91;;;-143.00;79.01
14269;BME280;7218;51.480;7.006;2024-02-26T05:39:57;76119.91;;;-143.00;78.74
14269;BME280;7218;51.480;7.006;2024-02-26T05:42:24;76125.91;;;-143.00;79.48
14269;BME280;7218;51.480;7.006;2024-02-26T05:44:50;76117.91;;;-143.00;78.41
14269;BME280;7218;51.480;7.006;2024-02-26T05:47:18;76099.94;;;-143.00;78.60
14269;BME280;7218;51.480;7.006;2024-02-26T05:49:45;76109.91;;;-143.00;78.89
14269;BME280;7218;51.480;7.006;2024-02-26T05:52:11;76121.91;;;-143.00;78.79
14269;BME280;7218;51.480;7.006;2024-02-26T05:54:38;76149.84;;;-143.00;79.91
14269;BME280;7218;51.480;7.006;2024-02-26T05:57:04;76111.91;;;-143.00;79.49
14269;BME280;7218;51.480;7.006;2024-02-26T05:59:31;76125.91;;;-143.00;79.06
14269;BME280;7218;51.480;7.006;2024-02-26T06:01:57;76117.91;;;-143.00;79.21
14269;BME280;7218;51.480;7.006;2024-02-26T06:04:25;76099.94;;;-143.00;79.58
14269;BME280;7218;51.480;7.006;2024-02-26T06:06:51;76135.88;;;-143.00;79.36
14269;BME280;7218;51.480;7.006;2024-02-26T06:09:18;76133.88;;;-143.00;79.75
14269;BME280;7218;51.480;7.006;2024-02-26T06:11:44;76145.84;;;-143.00;80.17
14269;BME280;7218;51.480;7.006;2024-02-26T06:14:10;76163.81;;;-143.00;80.12
14269;BME280;7218;51.480;7.006;2024-02-26T06:16:39;76163.81;;;-143.00;80.85
14269;BME280;7218;51.480;7.006;2024-02-26T06:19:06;76177.78;;;-143.00;80.91
14269;BME280;7218;51.480;7.006;2024-02-26T06:21:34;76165.81;;;-143.00;81.16
14269;BME280;7218;51.480;7.006;2024-02-26T06:24:00;76179.78;;;-143.00;81.11
14269;BME280;7218;51.480;7.006;2024-02-26T06:26:27;76179.78;;;-143.00;81.55
14269;BME280;7218;51.480;7.006;2024-02-26T06:28:54;76165.81;;;-143.00;81.78
14269;BME280;7218;51.480;7.006;2024-02-26T06:31:21;76165.81;;;-143.00;81.50
14269;BME280;7218;51.480;7.006;2024-02-26T06:33:48;76149.84;;;-143.00;80.73
14269;BME280;7218;51.480;7.006;2024-02-26T06:36:15;76125.91;;;-143.00;80.48
14269;BME280;7218;51.480;7.006;2024-02-26T06:38:43;76123.91;;;-143.00;80.75
14269;BME280;7218;51.480;7.006;2024-02-26T06:41:09;76125.91;;;-143.00;79.99
14269;BME280;7218;51.480;7.006;2024-02-26T06:43:36;76137.88;;;-143.00;79.53
14269;BME280;7218;51.480;7.006;2024-02-26T06:46:03;76137.88;;;-143.00;79.94
14269;BME280;7218;51.480;7.006;2024-02-26T06:48:29;76125.91;;;-143.00;79.48
14269;BME280;7218;51.480;7.006;2024-02-26T06:50:56;76135.88;;;-143.00;79.37
14269;BME280;7218;51.480;7.006;2024-02-26T06:53:22;76137.88;;;-143.00;80.07
14269;BME280;7218;51.480;7.006;2024-02-26T06:55:50;76119.91;;;-143.00;79.71
14269;BME280;7218;51.480;7.006;2024-02-26T06:58:16;76145.84;;;-143.00;80.29
14269;BME280;7218;51.480;7.006;2024-02-26T07:00:43;76133.88;;;-143.00;80.12
14269;BME280;7218;51.480;7.006;2024-02-26T07:03:09;76143.88;;;-143.00;79.58
14269;BME280;7218;51.480;7.006;2024-02-26T07:05:36;76141.88;;;-143.00;79.63
14269;BME280;7218;51.480;7.006;2024-02-26T07:08:03;76133.88;;;-143.00;79.53
14269;BME280;7218;51.480;7.006;2024-02-26T07:10:29;76137.88;;;-143.00;79.75
14269;BME280;7218;51.480;7.006;2024-02-26T07:12:57;76117.91;;;-143.00;79.83
14269;BME280;7218;51.480;7.006;2024-02-26T07:15:24;76133.88;;;-143.00;79.46
14269;BME280;7218;51.480;7.006;2024-02-26T07:17:50;76131.88;;;-143.00;79.13
14269;BME280;7218;51.480;7.006;2024-02-26T07:20:16;76125.91;;;-143.00;78.87
14269;BME280;7218;51.480;7.006;2024-02-26T07:22:43;76137.88;;;-143.00;79.42
14269;BME280;7218;51.480;7.006;2024-02-26T07:25:09;76133.88;;;-143.00;79.24
14269;BME280;7218;51.480;7.006;2024-02-26T07:27:38;76149.84;;;-143.00;79.38
14269;BME280;7218;51.480;7.006;2024-02-26T07:30:07;76121.91;;;-143.00;78.67
14269;BME280;7218;51.480;7.006;2024-02-26T07:32:34;76135.88;;;-143.00;79.05
14269;BME280;7218;51.480;7.006;2024-02-26T07:35:01;76131.88;;;-143.00;78.72
14269;BME280;7218;51.480;7.006;2024-02-26T07:37:27;76129.88;;;-143.00;78.40
14269;BME280;7218;51.480;7.006;2024-02-26T07:39:54;76155.84;;;-143.00;79.27
14269;BME280;7218;51.480;7.006;2024-02-26T07:42:20;76141.88;;;-143.00;79.12
14269;BME280;7218;51.480;7.006;2024-02-26T07:44:47;76151.84;;;-143.00;78.86
14269;BME280;7218;51.480;7.006;2024-02-26T07:47:14;76129.88;;;-143.00;79.49
14269;BME280;7218;51.480;7.006;2024-02-26T07:49:41;76145.84;;;-143.00;79.65
14269;BME280;7218;51.480;7.006;2024-02-26T07:52:07;76137.88;;;-143.00;79.28
14269;BME280;7218;51.480;7.006;2024-02-26T07:54:34;76137.88;;;-143.00;79.36
14269;BME280;7218;51.480;7.006;2024-02-26T07:57:00;76117.91;;;-143.00;78.55
14269;BME280;7218;51.480;7.006;2024-02-26T07:59:30;76143.88;;;-143.00;79.58
14269;BME280;7218;51.480;7.006;2024-02-26T08:01:56;76129.88;;;-143.00;79.06
14269;BME280;7218;51.480;7.006;2024-02-26T08:04:24;76117.91;;;-143.00;78.72
14269;BME280;7218;51.480;7.006;2024-02-26T08:06:51;76113.91;;;-143.00;78.62
14269;BME280;7218;51.480;7.006;2024-02-26T08:09:18;76133.88;;;-143.00;78.70
14269;BME280;7218;51.480;7.006;2024-02-26T08:11:44;76121.91;;;-143.00;78.35
14269;BME280;7218;51.480;7.006;2024-02-26T08:14:11;76129.88;;;-143.00;78.91
14269;BME280;7218;51.480;7.006;2024-02-26T08:16:37;76125.91;;;-143.00;79.05
14269;BME280;7218;51.480;7.006;2024-02-26T08:19:04;76119.91;;;-143.00;78.80
14269;BME280;7218;51.480;7.006;2024-02-26T08:21:31;76111.91;;;-143.00;79.36
14269;BME280;7218;51.480;7.006;2024-02-26T08:23:58;76127.88;;;-143.00;79.24
14269;BME280;7218;51.480;7.006;2024-02-26T08:26:24;76137.88;;;-143.00;79.27
14269;BME280;7218;51.480;7.006;2024-02-26T08:28:51;76133.88;;;-143.00;79.66
14269;BME280;7218;51.480;7.006;2024-02-26T08:31:19;76137.88;;;-143.00;79.95
14269;BME280;7218;51.480;7.006;2024-02-26T08:33:46;76153.84;;;-143.00;79.47
14269;BME280;7218;51.480;7.006;2024-02-26T08:36:12;76129.88;;;-143.00;79.80
14269;BME280;7218;51.480;7.006;2024-02-26T08:38:40;76103.94;;;-143.00;79.77
14269;BME280;7218;51.480;7.006;2024-02-26T08:41:07;76119.91;;;-143.00;79.16
14269;BME280;7218;51.480;7.006;2024-02-26T08:43:33;76113.91;;;-143.00;79.68
14269;BME280;7218;51.480;7.006;2024-02-26T08:45:59;76117.91;;;-143.00;79.60
14269;BME280;7218;51.480;7.006;2024-02-26T08:48:26;76109.91;;;-143.00;79.95
14269;BME280;7218;51.480;7.006;2024-02-26T08:50:52;76105.94;;;-143.00;79.77
14269;BME280;7218;51.480;7.006;2024-02-26T08:53:18;76099.94;;;-143.00;78.72
14269;BME280;7218;51.480;7.006;2024-02-26T08:55:45;76085.97;;;-143.00;79.09
14269;BME280;7218;51.480;7.006;2024-02-26T08:58:12;76095.94;;;-143.00;78.67
14269;BME280;7218;51.480;7.006;2024-02-26T09:00:38;76105.94;;;-143.00;78.79
14269;BME280;7218;51.480;7.006;2024-02-26T09:03:05;76121.91;;;-143.00;79.51
14269;BME280;7218;51.480;7.006;2024-02-26T09:05:31;76125.91;;;-143.00;79.64
14269;BME280;7218;51.480;7.006;2024-02-26T09:07:58;76115.91;;;-143.00;79.45
14269;BME280;7218;51.480;7.006;2024-02-26T09:10:24;76129.88;;;-143.00;79.39
14269;BME280;7218;51.480;7.006;2024-02-26T09:12:52;76115.91;;;-143.00;79.72
14269;BME280;7218;51.480;7.006;2024-02-26T09:15:20;76123.91;;;-143.00;78.99
14269;BME280;7218;51.480;7.006;2024-02-26T09:17:46;76121.91;;;-143.00;78.66
14269;BME280;7218;51.480;7.006;2024-02-26T09:20:15;76133.88;;;-143.00;78.83
14269;BME280;7218;51.480;7.006;2024-02-26T09:22:45;76125.91;;;-143.00;78.82
14269;BME280;7218;51.480;7.006;2024-02-26T09:25:11;76121.91;;;-143.00;78.71
14269;BME280;7218;51.480;7.006;2024-02-26T09:27:38;76117.91;;;-143.00;78.57
14269;BME280;7218;51.480;7.006;2024-02-26T09:30:07;76123.91;;;-143.00;79.09
14269;BME280;7218;51.480;7.006;2024-02-26T09:32:33;76149.84;;;-143.00;78.92
14269;BME280;7218;51.480;7.006;2024-02-26T09:35:00;76121.91;;;-143.00;79.11
14269;BME280;7218;51.480;7.006;2024-02-26T09:37:26;76131.88;;;-143.00;78.88
14269;BME280;7218;51.480;7.006;2024-02-26T09:39:53;76139.88;;;-143.00;79.40
14269;BME280;7218;51.480;7.006;2024-02-26T09:42:19;76159.84;;;-143.00;79.36
14269;BME280;7218;51.480;7.006;2024-02-26T09:44:47;76121.91;;;-143.00;79.04
14269;BME280;7218;51.480;7.006;2024-02-26T09:47:18;76109.91;;;-143.00;78.69
14269;BME280;7218;51.480;7.006;2024-02-26T09:49:46;76121.91;;;-143.00;78.31
14269;BME280;7218;51.480;7.006;2024-02-26T09:52:14;76119.91;;;-143.00;77.73
14269;BME280;7218;51.480;7.006;2024-02-26T09:54:41;76129.88;;;-143.00;77.99
14269;BME280;7218;51.480;7.006;2024-02-26T09:57:09;76115.91;;;-143.00;78.20
14269;BME280;7218;51.480;7.006;2024-02-26T09:59:41;76115.91;;;-143.00;78.55
14269;BME280;7218;51.480;7.006;2024-02-26T10:02:11;76133.88;;;-143.00;77.99
14269;BME280;7218;51.480;7.006;2024-02-26T10:04:39;76135.88;;;-143.00;78.28
14269;BME280;7218;51.480;7.006;2024-02-26T10:07:09;76117.91;;;-143.00;77.76
14269;BME280;7218;51.480;7.006;2024-02-26T10:09:37;76141.88;;;-143.00;78.22
14269;BME280;7218;51.480;7.006;2024-02-26T10:12:04;76129.88;;;-143.00;78.25
14269;BME280;7218;51.480;7.006;2024-02-26T10:14:31;76161.81;;;-143.00;78.72
14269;BME280;7218;51.480;7.006;2024-02-26T10:16:58;76127.88;;;-143.00;79.01
14269;BME280;7218;51.480;7.006;2024-02-26T10:19:26;76125.91;;;-143.00;79.48
14269;BME280;7218;51.480;7.006;2024-02-26T10:21:58;76125.91;;;-143.00;78.58
14269;BME280;7218;51.480;7.006;2024-02-26T10:24:26;76137.88;;;-143.00;79.32
14269;BME280;7218;51.480;7.006;2024-02-26T10:26:52;76143.88;;;-143.00;78.44
14269;BME280;7218;51.480;7.006;2024-02-26T10:29:21;76121.91;;;-143.00;78.19
14269;BME280;7218;51.480;7.006;2024-02-26T10:31:48;76123.91;;;-143.00;78.18
14269;BME280;7218;51.480;7.006;2024-02-26T10:34:15;76113.91;;;-143.00;77.93
14269;BME280;7218;51.480;7.006;2024-02-26T10:36:42;76107.94;;;-143.00;78.09
14269;BME280;7218;51.480;7.006;2024-02-26T10:39:12;76083.97;;;-143.00;78.06
14269;BME280;7218;51.480;7.006;2024-02-26T10:41:40;76089.97;;;-143.00;78.45
14269;BME280;7218;51.480;7.006;2024-02-26T10:44:08;76085.97;;;-143.00;78.04
14269;BME280;7218;51.480;7.006;2024-02-26T10:46:36;76091.97;;;-143.00;77.99
14269;BME280;7218;51.480;7.006;2024-02-26T10:49:04;76093.94;;;-143.00;77.47
14269;BME280;7218;51.480;7.006;2024-02-26T10:51:33;76097.94;;;-143.00;78.31
14269;BME280;7218;51.480;7.006;2024-02-26T10:54:02;76101.94;;;-143.00;78.06
14269;BME280;7218;51.480;7.006;2024-02-26T10:56:34;76083.97;;;-143.00;78.43
14269;BME280;7218;51.480;7.006;2024-02-26T10:59:03;76072.00;;;-143.00;78.60
14269;BME280;7218;51.480;7.006;2024-02-26T11:01:31;76107.94;;;-143.00;77.32
14269;BME280;7218;51.480;7.006;2024-02-26T11:03:58;76077.97;;;-143.00;77.85
14269;BME280;7218;51.480;7.006;2024-02-26T11:06:27;76074.00;;;-143.00;78.43
14269;BME280;7218;51.480;7.006;2024-02-26T11:08:55;76062.00;;;-143.00;78.42
14269;BME280;7218;51.480;7.006;2024-02-26T11:11:22;76083.97;;;-143.00;77.74
14269;BME280;7218;51.480;7.006;2024-02-26T11:13:52;76062.00;;;-143.00;78.28
14269;BME280;7218;51.480;7.006;2024-02-26T11:16:21;76087.97;;;-143.00;78.11
14269;BME280;7218;51.480;7.006;2024-02-26T11:18:48;76079.97;;;-143.00;78.89
14269;BME280;7218;51.480;7.006;2024-02-26T11:21:16;76075.97;;;-143.00;78.30
14269;BME280;7218;51.480;7.006;2024-02-26T11:23:44;76081.97;;;-143.00;78.75
14269;BME280;7218;51.480;7.006;2024-02-26T11:26:13;76087.97;;;-143.00;78.49
14269;BME280;7218;51.480;7.006;2024-02-26T11:28:42;76105.94;;;-143.00;78.67
14269;BME280;7218;51.480;7.006;2024-02-26T11:31:12;76081.97;;;-143.00;78.02
14269;BME280;7218;51.480;7.006;2024-02-26T11:33:39;76062.00;;;-143.00;77.38
14269;BME280;7218;51.480;7.006;2024-02-26T11:36:08;76036.06;;;-143.00;76.98
14269;BME280;7218;51.480;7.006;2024-02-26T11:38:35;76064.00;;;-143.00;76.52
14269;BME280;7218;51.480;7.006;2024-02-26T11:41:02;76050.03;;;-143.00;76.08
14269;BME280;7218;51.480;7.006;2024-02-26T11:43:50;76004.13;;;-143.00;75.16
14269;BME280;7218;51.480;7.006;2024-02-26T11:46:28;76000.13;;;-143.00;75.24
14269;BME280;7218;51.480;7.006;2024-02-26T11:48:58;75970.19;;;-143.00;75.45
14269;BME280;7218;51.480;7.006;2024-02-26T11:51:25;75978.16;;;-143.00;74.68
14269;BME280;7218;51.480;7.006;2024-02-26T11:53:52;75976.16;;;-143.00;74.30
14269;BME280;7218;51.480;7.006;2024-02-26T11:56:23;75938.25;;;-143.00;72.92
14269;BME280;7218;51.480;7.006;2024-02-26T11:58:53;75932.25;;;-143.00;71.71
14269;BME280;7218;51.480;7.006;2024-02-26T12:01:41;75924.25;;;-143.00;71.63
14269;BME280;7218;51.480;7.006;2024-02-26T12:04:12;75920.28;;;-143.00;72.31
14269;BME280;7218;51.480;7.006;2024-02-26T12:06:42;75946.22;;;-143.00;71.52
14269;BME280;7218;51.480;7.006;2024-02-26T12:09:09;75942.22;;;-143.00;70.18
14269;BME280;7218;51.480;7.006;2024-02-26T12:11:37;75916.28;;;-143.00;68.70
14269;BME280;7218;51.480;7.006;2024-02-26T12:14:05;75904.31;;;-143.00;67.81
14269;BME280;7218;51.480;7.006;2024-02-26T12:16:37;75922.28;;;-143.00;68.52
14269;BME280;7218;51.480;7.006;2024-02-26T12:19:07;75936.25;;;-143.00;68.33
14269;BME280;7218;51.480;7.006;2024-02-26T12:21:34;75958.19;;;-143.00;69.03
14269;BME280;7218;51.480;7.006;2024-02-26T12:24:10;75998.13;;;-143.00;70.28
14269;BME280;7218;51.480;7.006;2024-02-26T12:26:38;75996.13;;;-143.00;70.03
14269;BME280;7218;51.480;7.006;2024-02-26T12:29:04;76048.03;;;-143.00;69.34
14269;BME280;7218;51.480;7.006;2024-02-26T12:31:31;76044.03;;;-143.00;70.84
14269;BME280;7218;51.480;7.006;2024-02-26T12:33:58;76018.09;;;-143.00;70.00
14269;BME280;7218;51.480;7.006;2024-02-26T12:36:27;76016.09;;;-143.00;70.43
14269;BME280;7218;51.480;7.006;2024-02-26T12:38:53;76008.09;;;-143.00;70.06
14269;BME280;7218;51.480;7.006;2024-02-26T12:41:20;75990.16;;;-143.00;71.11
14269;BME280;7218;51.480;7.006;2024-02-26T12:43:46;76032.06;;;-143.00;69.80
14269;BME280;7218;51.480;7.006;2024-02-26T12:46:12;76018.09;;;-143.00;70.56
14269;BME280;7218;51.480;7.006;2024-02-26T12:48:42;76016.09;;;-143.00;69.80
14269;BME280;7218;51.480;7.006;2024-02-26T12:51:09;76032.06;;;-143.00;69.39